4. Juli 2022

Uhrzeit Code Wetter Temp. Sichtweite Wolkendecke Wind METAR/SPECI
10:20 pm
V
66 °F 5⅝ mi - 320° 320° 5 kt METAR EDLV 042020Z 32005KT 9000 NSC 19/12 Q1020
9:50 pm
V
68 °F 6¼ mi+ - 310° 310° 4 kt METAR EDLV 041950Z 31004KT CAVOK 20/12 Q1020
9:20 pm
V
68 °F 6¼ mi+ - 320° 320° 4 kt METAR EDLV 041920Z 32004KT 290V350 CAVOK 20/12 Q1019
8:50 pm
V
68 °F 6¼ mi+ - 320° 320° 4 kt METAR EDLV 041850Z 32004KT 290V350 CAVOK 20/12 Q1019
8:20 pm
V
72 °F 6¼ mi+ - 320° 320° 4 kt METAR EDLV 041820Z 32004KT 290V020 CAVOK 22/12 Q1019
7:50 pm
V
72 °F 6¼ mi+ - 320° 320° 5 kt METAR EDLV 041750Z 32005KT 280V360 CAVOK 22/12 Q1019
7:20 pm
V
73 °F 6¼ mi+ - 300° 300° 7 kt METAR EDLV 041720Z 30007KT 270V350 CAVOK 23/12 Q1019
6:50 pm
V
73 °F 6¼ mi+ - 320° 320° 5 kt METAR EDLV 041650Z 32005KT 290V010 CAVOK 23/12 Q1019
6:20 pm
V
73 °F 6¼ mi+ - 270° 270° 8 kt METAR EDLV 041620Z 27008KT CAVOK 23/12 Q1019
5:50 pm
V
73 °F 6¼ mi+ - 290° 290° 6 kt METAR EDLV 041550Z 29006KT 260V340 CAVOK 23/12 Q1019
5:20 pm
V
73 °F 6¼ mi+ - 300° 300° 8 kt METAR EDLV 041520Z 30008KT 260V340 CAVOK 23/11 Q1019
4:50 pm
V
73 °F 6¼ mi+ - 290° 290° 8 kt METAR EDLV 041450Z 29008KT 250V330 CAVOK 23/12 Q1019
4:20 pm
V
73 °F 6¼ mi+ - 270° 270° 9 kt METAR EDLV 041420Z 27009KT 220V310 CAVOK 23/12 Q1019
3:50 pm
V
73 °F 6¼ mi+ - 270° 270° 8 kt METAR EDLV 041350Z 27008KT 230V320 9999 FEW049 23/12 Q1019
3:20 pm
V
73 °F 6¼ mi+ - 280° 280° 7 kt METAR EDLV 041320Z 28007KT 230V340 9999 FEW044 23/13 Q1019
2:50 pm
V
72 °F 6¼ mi+ - 310° 310° 6 kt METAR EDLV 041250Z 31006KT 280V350 CAVOK 22/13 Q1020
2:20 pm
V
72 °F 6¼ mi+ - 280° 280° 9 kt METAR EDLV 041220Z 28009KT 230V330 CAVOK 22/11 Q1020
1:50 pm
V
73 °F 6¼ mi+ - 250° 250° 9 kt METAR EDLV 041150Z 25009KT 200V290 9999 SCT049 23/11 Q1020
1:20 pm
V
73 °F 6¼ mi+ - 240° 240° 9 kt METAR EDLV 041120Z 24009KT 190V270 9999 FEW047 23/11 Q1020
12:50 pm
V
70 °F 6¼ mi+ - 230° 230° 8 kt METAR EDLV 041050Z 23008KT 200V270 9999 FEW046 21/11 Q1020
12:20 pm
V
72 °F 6¼ mi+ - 260° 260° 8 kt METAR EDLV 041020Z 26008KT 220V300 9999 FEW046 22/11 Q1020
11:50 am
V
72 °F 6¼ mi+ - 240° 240° 7 kt METAR EDLV 040950Z 24007KT 200V280 9999 FEW041 22/12 Q1021
11:20 am
V
68 °F 6¼ mi+ - 230° 230° 7 kt METAR EDLV 040920Z 23007KT 200V310 9999 FEW035 20/11 Q1020
10:50 am
V
70 °F 6¼ mi+ - 230° 230° 7 kt METAR EDLV 040850Z 23007KT 190V260 CAVOK 21/13 Q1020
10:20 am
V
68 °F 6¼ mi+ - 240° 240° 7 kt METAR EDLV 040820Z 24007KT 190V270 CAVOK 20/12 Q1020
9:50 am
V
66 °F 6¼ mi+ - 240° 240° 7 kt METAR EDLV 040750Z 24007KT 200V270 CAVOK 19/12 Q1021
9:20 am
V
64 °F 6¼ mi+ - 220° 220° 7 kt METAR EDLV 040720Z 22007KT 180V260 CAVOK 18/12 Q1021
8:50 am
V
63 °F 6¼ mi+ - 210° 210° 5 kt METAR EDLV 040650Z 21005KT 180V250 CAVOK 17/12 Q1021
8:20 am
V
61 °F 6¼ mi+ - 200° 200° 5 kt METAR EDLV 040620Z 20005KT 170V260 CAVOK 16/12 Q1021
7:50 am
V
59 °F 6¼ mi+ - 190° 190° 6 kt METAR EDLV 040550Z 19006KT CAVOK 15/12 Q1021
7:20 am
V
55 °F 6¼ mi+ - 210° 210° 4 kt METAR EDLV 040520Z 21004KT 180V240 CAVOK 13/12 Q1021
5:20 am
V
50 °F 6¼ mi+ - 150° 150° 2 kt METAR EDLV 040320Z 15002KT CAVOK 10/10 Q1020
4:50 am
V
52 °F 6¼ mi+ - Var 000° 0 kt METAR EDLV 040250Z 00000KT CAVOK 11/10 Q1020
4:20 am
V
52 °F 6¼ mi+ - 280° 280° 1 kt METAR EDLV 040220Z AUTO 28001KT 9999 NCD 11/11 Q1020
3:50 am
V
54 °F 6¼ mi+ - Var Var 1 kt METAR EDLV 040150Z AUTO VRB01KT 9999 NCD 12/11 Q1020
3:20 am
V
54 °F 6¼ mi+ - 270° 270° 2 kt METAR EDLV 040120Z AUTO 27002KT 9999 NCD 12/11 Q1020
2:50 am
V
52 °F 6¼ mi+ - 190° 190° 1 kt METAR EDLV 040050Z AUTO 19001KT 9999 NCD 11/10 Q1020
2:20 am
V
54 °F 6¼ mi+ - 210° 210° 2 kt METAR EDLV 040020Z AUTO 21002KT 9999 NCD 12/10 Q1020
1:50 am
V
54 °F 6¼ mi+ - Var 000° 0 kt METAR EDLV 032350Z AUTO 00000KT 9999 NCD 12/10 Q1020
1:20 am
V
55 °F 6¼ mi+ - Var Var 1 kt METAR EDLV 032320Z AUTO VRB01KT 9999 NCD 13/10 Q1020
12:50 am
V
57 °F 6¼ mi+ - 310° 310° 2 kt METAR EDLV 032250Z AUTO 31002KT 9999 NCD 14/10 Q1020
12:20 am
V
59 °F 6¼ mi+ - 280° 280° 3 kt METAR EDLV 032220Z AUTO 28003KT 9999 NCD 15/10 Q1020

3. Juli 2022

Uhrzeit Code Wetter Temp. Sichtweite Wolkendecke Wind METAR/SPECI
11:50 pm
V
59 °F 6¼ mi+ - 290° 290° 4 kt METAR EDLV 032150Z 29004KT CAVOK 15/10 Q1020
11:20 pm
V
59 °F 6¼ mi+ - 290° 290° 3 kt METAR EDLV 032120Z 29003KT CAVOK 15/10 Q1020
10:50 pm
V
61 °F 6¼ mi+ - 280° 280° 3 kt METAR EDLV 032050Z 28003KT CAVOK 16/10 Q1020
10:20 pm
V
63 °F 6¼ mi+ - 300° 300° 4 kt METAR EDLV 032020Z 30004KT 270V330 CAVOK 17/10 Q1019
9:50 pm
V
64 °F 6¼ mi+ - 300° 300° 5 kt METAR EDLV 031950Z 30005KT 270V330 CAVOK 18/10 Q1019
9:20 pm
V
66 °F 6¼ mi+ - 290° 290° 7 kt METAR EDLV 031920Z 29007KT 260V330 CAVOK 19/10 Q1019
8:50 pm
V
66 °F 6¼ mi+ - 290° 290° 8 kt METAR EDLV 031850Z 29008KT 260V320 CAVOK 19/10 Q1019
8:20 pm
V
68 °F 6¼ mi+ - 300° 300° 7 kt METAR EDLV 031820Z 30007KT 270V340 CAVOK 20/11 Q1019
7:50 pm
V
70 °F 6¼ mi+ - 300° 300° 9 kt METAR EDLV 031750Z 30009KT 270V330 9999 FEW042 21/11 Q1019
7:20 pm
V
70 °F 6¼ mi+ - 300° 300° 9 kt METAR EDLV 031720Z 30009KT 270V330 9999 FEW042 21/12 Q1019
6:50 pm
V
70 °F 6¼ mi+ - 290° 290° 10 kt METAR EDLV 031650Z 29010KT 250V330 9999 FEW043 21/12 Q1018
6:20 pm
V
72 °F 6¼ mi+ - 290° 290° 11 kt METAR EDLV 031620Z 29011KT 260V320 9999 FEW042 22/12 Q1018
5:50 pm
V
72 °F 6¼ mi+ - 290° 290° 9 kt METAR EDLV 031550Z 29009KT 260V320 9999 FEW046 22/12 Q1018
5:20 pm
V
73 °F 6¼ mi+ - 270° 270° 12 kt METAR EDLV 031520Z 27012KT CAVOK 23/11 Q1018
4:50 pm
V
72 °F 6¼ mi+ - 260° 260° 13 kt METAR EDLV 031450Z 26013KT 230V300 9999 FEW045 22/12 Q1018
4:20 pm
V
72 °F 6¼ mi+ - 280° 280° 11 kt METAR EDLV 031420Z 28011KT 250V310 9999 FEW047 22/12 Q1018
3:50 pm
V
73 °F 6¼ mi+ - 270° 270° 11 kt METAR EDLV 031350Z 27011KT 240V300 9999 SCT048 23/13 Q1018
3:20 pm
V
73 °F 6¼ mi+ - 260° 260° 8 kt METAR EDLV 031320Z 26008KT 210V310 9999 FEW048 23/13 Q1018
2:50 pm
V
73 °F 6¼ mi+ - 290° 290° 9 kt METAR EDLV 031250Z 29009KT 250V340 9999 SCT044 23/14 Q1018
2:20 pm
V
72 °F 6¼ mi+ - 270° 270° 9 kt METAR EDLV 031220Z 27009KT 240V300 9999 SCT048 22/13 Q1018
1:50 pm
V
72 °F 6¼ mi+ - 260° 260° 9 kt METAR EDLV 031150Z 26009KT 230V300 9999 FEW040 22/13 Q1018
1:20 pm
V
73 °F 6¼ mi+ 4.800 ft 260° 260° 9 kt METAR EDLV 031120Z 26009KT 240V310 9999 BKN048 23/13 Q1018
12:50 pm
V
72 °F 6¼ mi+ - 270° 270° 8 kt METAR EDLV 031050Z 27008KT 240V300 9999 FEW048 22/12 Q1018
12:20 pm
V
72 °F 6¼ mi+ - 270° 270° 6 kt METAR EDLV 031020Z 27006KT 200V350 CAVOK 22/13 Q1018
11:50 am
V
72 °F 6¼ mi+ - 250° 250° 8 kt METAR EDLV 030950Z 25008KT 210V310 CAVOK 22/12 Q1018
11:20 am
V
70 °F 6¼ mi+ - 270° 270° 8 kt METAR EDLV 030920Z 27008KT 240V300 CAVOK 21/12 Q1018
10:50 am
V
70 °F 6¼ mi+ - 260° 260° 7 kt METAR EDLV 030850Z 26007KT 220V310 CAVOK 21/13 Q1018
10:20 am
V
68 °F 6¼ mi+ - 260° 260° 7 kt METAR EDLV 030820Z 26007KT 230V290 CAVOK 20/12 Q1018
9:50 am
V
68 °F 6¼ mi+ - 280° 280° 7 kt METAR EDLV 030750Z 28007KT 240V310 CAVOK 20/12 Q1018
9:20 am
V
66 °F 6¼ mi+ - 270° 270° 8 kt METAR EDLV 030720Z 27008KT 240V300 CAVOK 19/13 Q1018
8:50 am
V
66 °F 6¼ mi+ - 270° 270° 7 kt METAR EDLV 030650Z 27007KT CAVOK 19/13 Q1018
8:20 am
V
64 °F 6¼ mi+ - 270° 270° 5 kt METAR EDLV 030620Z 27005KT 240V310 CAVOK 18/13 Q1018
7:50 am
V
63 °F 6¼ mi+ - 260° 260° 4 kt METAR EDLV 030550Z 26004KT CAVOK 17/13 Q1017
7:20 am
V
61 °F 6¼ mi+ - 270° 270° 4 kt METAR EDLV 030520Z 27004KT CAVOK 16/13 Q1017
6:50 am
V
59 °F 6¼ mi+ - 270° 270° 4 kt METAR EDLV 030450Z 27004KT CAVOK 15/13 Q1017
6:20 am
V
57 °F 6¼ mi+ - Var Var 1 kt METAR EDLV 030420Z VRB01KT CAVOK 14/12 Q1017
5:50 am
V
55 °F 6¼ mi+ - 270° 270° 4 kt METAR EDLV 030350Z 27004KT CAVOK 13/12 Q1017
5:20 am
V
57 °F 6¼ mi+ - 270° 270° 3 kt METAR EDLV 030320Z 27003KT CAVOK 14/12 Q1017
4:50 am
V
57 °F 6¼ mi+ - 270° 270° 6 kt METAR EDLV 030250Z 27006KT CAVOK 14/12 Q1017
4:20 am
V
59 °F 6¼ mi+ - Var 000° 0 kt METAR EDLV 030220Z AUTO 00000KT 9999 FEW073/// 15/12 Q1017
3:50 am
V
59 °F 6¼ mi+ - Var 000° 0 kt METAR EDLV 030150Z AUTO 00000KT 9999 FEW074/// SCT130/// 15/13 Q1017
3:20 am
V
59 °F 6¼ mi+ 13.000 ft 130° 130° 2 kt METAR EDLV 030120Z AUTO 13002KT 9999 BKN130/// 15/13 Q1017
2:50 am
V
63 °F 6¼ mi+ 14.000 ft 130° 130° 2 kt METAR EDLV 030050Z AUTO 13002KT 9999 BKN140/// 17/12 Q1017
2:20 am
V
63 °F 6¼ mi+ 13.000 ft Var Var 1 kt METAR EDLV 030020Z AUTO VRB01KT 9999 SCT083/// BKN130/// 17/12 Q1017
1:50 am
V
61 °F 6¼ mi+ 8.700 ft Var 000° 0 kt METAR EDLV 022350Z AUTO 00000KT 9999 BKN087/// 16/13 Q1017
1:20 am
V
64 °F 6¼ mi+ 8.700 ft Var Var 2 kt METAR EDLV 022320Z AUTO VRB02KT 9999 BKN087/// 18/12 Q1017
12:50 am
V
63 °F 6¼ mi+ 8.800 ft Var 000° 0 kt METAR EDLV 022250Z AUTO 00000KT 9999 BKN088/// 17/12 Q1017
12:20 am
V
61 °F 6¼ mi+ - Var 000° 0 kt METAR EDLV 022220Z AUTO 00000KT 9999 NCD 16/13 Q1017

2. Juli 2022

Uhrzeit Code Wetter Temp. Sichtweite Wolkendecke Wind METAR/SPECI
11:50 pm
V
63 °F 6¼ mi+ - Var Var 2 kt METAR EDLV 022150Z AUTO VRB02KT CAVOK 17/12 Q1018
11:20 pm
V
66 °F 6¼ mi+ - 270° 270° 1 kt METAR EDLV 022120Z 27001KT CAVOK 19/12 Q1018
10:50 pm
V
70 °F 6¼ mi+ - Var Var 1 kt METAR EDLV 022050Z VRB01KT CAVOK 21/11 Q1018
10:20 pm
V
72 °F 6¼ mi+ - Var Var 1 kt METAR EDLV 022020Z VRB01KT CAVOK 22/12 Q1018
9:50 pm
V
72 °F 6¼ mi+ - 330° 330° 3 kt METAR EDLV 021950Z 33003KT 300V360 CAVOK 22/12 Q1018
9:20 pm
V
72 °F 6¼ mi+ - 330° 330° 3 kt METAR EDLV 021920Z 33003KT 300V360 CAVOK 22/12 Q1018
8:50 pm
V
73 °F 6¼ mi+ - 310° 310° 4 kt METAR EDLV 021850Z 31004KT CAVOK 23/12 Q1018
8:20 pm
L
73 °F ¼ mi - 320° 320° 4 kt METAR EDLV 021820Z 32004KT 9999 0350 R27/P2000N NSC 23/11 Q1018
7:50 pm
V
75 °F 6¼ mi+ - 270° 270° 5 kt METAR EDLV 021750Z 27005KT 220V300 CAVOK 24/11 Q1018
7:20 pm
V
75 °F 6¼ mi+ - 270° 270° 5 kt METAR EDLV 021720Z 27005KT 190V320 CAVOK 24/11 Q1018
6:50 pm
V
77 °F 6¼ mi+ - 220° 220° 6 kt METAR EDLV 021650Z 22006KT 180V280 CAVOK 25/10 Q1018
6:20 pm
V
77 °F 6¼ mi+ - Var Var 5 kt METAR EDLV 021620Z VRB05KT CAVOK 25/10 Q1018
5:50 pm
V
79 °F 6¼ mi+ - 200° 200° 7 kt METAR EDLV 021550Z 20007KT 170V230 CAVOK 26/11 Q1019
5:20 pm
V
77 °F 6¼ mi+ - 190° 190° 7 kt METAR EDLV 021520Z 19007KT 150V230 CAVOK 25/10 Q1019
4:50 pm
V
77 °F 6¼ mi+ - 150° 150° 5 kt METAR EDLV 021450Z 15005KT 100V230 CAVOK 25/10 Q1019
Ältere Daten

Laden Sie unsere App herunter

Einfacher Zugriff auf das gesamte Flugwetter auf Ihrem Mobiltelefon und Tablet.
Mit vielen Funktionen, die auf der Website nicht verfügbar sind, wie Offline-Unterstützung und eine persönliche Flughafenliste.

Wir und Dritte verfolgen dein Internetverhalten auf unserer Website mit Cookies. Wenn du fortfährst, gehen wir davon aus, dass du mit unserer Cookie-Richtlinie einverstanden bist. Mehr erfahren